createdAt,value
2023-01-09T00:01:26.431Z,9.18
2023-01-09T00:03:56.028Z,7.88
2023-01-09T00:06:25.453Z,8.15
2023-01-09T00:08:53.280Z,7.40
2023-01-09T00:11:21.234Z,8.10
2023-01-09T00:13:49.072Z,8.90
2023-01-09T00:16:17.907Z,9.05
2023-01-09T00:18:46.166Z,8.57
2023-01-09T00:21:16.020Z,7.90
2023-01-09T00:23:44.003Z,7.57
2023-01-09T00:26:13.784Z,7.47
2023-01-09T00:28:41.984Z,8.05
2023-01-09T00:31:11.101Z,8.05
2023-01-09T00:33:42.776Z,7.20
2023-01-09T00:36:11.903Z,7.40
2023-01-09T00:38:41.379Z,7.45
2023-01-09T00:41:13.108Z,7.13
2023-01-09T00:43:45.695Z,5.90
2023-01-09T00:46:16.045Z,7.20
2023-01-09T00:48:47.446Z,6.70
2023-01-09T00:51:16.762Z,6.10
2023-01-09T00:53:46.876Z,6.20
2023-01-09T00:56:17.932Z,6.03
2023-01-09T00:58:46.864Z,6.53
2023-01-09T01:01:15.214Z,5.50
2023-01-09T01:03:43.153Z,5.28
2023-01-09T01:06:28.839Z,5.90
2023-01-09T01:08:58.065Z,5.50
2023-01-09T01:11:26.186Z,4.60
2023-01-09T01:13:54.339Z,5.38
2023-01-09T01:16:22.300Z,5.53
2023-01-09T01:18:50.578Z,5.40
2023-01-09T01:21:18.962Z,5.50
2023-01-09T01:23:46.889Z,5.50
2023-01-09T01:26:17.574Z,5.05
2023-01-09T01:28:45.477Z,5.25
2023-01-09T01:31:18.338Z,5.65
2023-01-09T01:33:46.256Z,4.70
2023-01-09T01:36:16.235Z,5.03
2023-01-09T01:38:44.942Z,4.95
2023-01-09T01:41:12.775Z,4.45
2023-01-09T01:43:57.207Z,4.53
2023-01-09T01:46:25.220Z,5.30
2023-01-09T01:48:58.991Z,5.30
2023-01-09T01:51:29.811Z,4.72
2023-01-09T01:54:02.581Z,4.68
2023-01-09T01:56:36.522Z,5.10
2023-01-09T01:59:11.110Z,5.10
2023-01-09T02:01:42.116Z,5.00
2023-01-09T02:04:11.163Z,5.32
2023-01-09T02:06:39.927Z,5.38
2023-01-09T02:09:08.869Z,5.18
2023-01-09T02:11:36.793Z,5.32
2023-01-09T02:14:06.202Z,5.30
2023-01-09T02:16:49.356Z,5.38
2023-01-09T02:19:52.511Z,5.20
2023-01-09T02:22:31.261Z,5.20
2023-01-09T02:25:20.130Z,5.88
2023-01-09T02:28:20.062Z,5.65
2023-01-09T02:30:53.009Z,5.95
2023-01-09T02:33:43.674Z,5.50
2023-01-09T02:36:21.011Z,5.90
2023-01-09T02:39:03.213Z,5.97
2023-01-09T02:41:38.055Z,6.40
2023-01-09T02:44:17.896Z,5.97
2023-01-09T02:46:47.387Z,5.90
2023-01-09T02:49:17.535Z,6.00
2023-01-09T02:51:53.068Z,6.75
2023-01-09T02:54:38.827Z,6.40
2023-01-09T02:57:30.156Z,6.10
2023-01-09T03:00:10.320Z,7.28
2023-01-09T03:05:20.280Z,7.75
2023-01-09T03:07:57.107Z,7.40
2023-01-09T03:10:29.911Z,7.82
2023-01-09T03:13:00.043Z,7.60
2023-01-09T03:15:32.201Z,7.93
2023-01-09T03:18:02.138Z,8.05
2023-01-09T03:20:32.197Z,8.20
2023-01-09T03:23:02.169Z,8.05
2023-01-09T03:25:31.458Z,9.27
2023-01-09T03:28:01.165Z,9.17
2023-01-09T03:30:31.170Z,9.45
2023-01-09T03:32:59.606Z,8.70
2023-01-09T03:35:30.146Z,9.02
2023-01-09T03:37:59.038Z,8.17
2023-01-09T03:40:27.022Z,9.27
2023-01-09T03:42:54.952Z,8.75
2023-01-09T03:45:22.941Z,9.55
2023-01-09T03:47:52.966Z,10.13
2023-01-09T03:50:21.025Z,9.63
2023-01-09T03:52:50.391Z,10.50
2023-01-09T03:55:18.346Z,10.17
2023-01-09T03:57:46.230Z,11.27
2023-01-09T04:00:15.110Z,10.38
2023-01-09T04:02:43.315Z,11.13
2023-01-09T04:05:11.693Z,11.63
2023-01-09T04:07:39.786Z,10.73
2023-01-09T04:10:11.667Z,10.60
2023-01-09T04:12:39.595Z,12.23
2023-01-09T04:15:08.662Z,12.13
2023-01-09T04:17:36.687Z,13.45
2023-01-09T04:20:05.554Z,13.50
2023-01-09T04:22:33.559Z,13.43
2023-01-09T04:25:01.490Z,14.02
2023-01-09T04:27:31.485Z,13.52
2023-01-09T04:29:59.400Z,15.07
2023-01-09T04:32:27.706Z,13.68
2023-01-09T04:34:55.570Z,14.70
2023-01-09T04:37:24.812Z,15.00
2023-01-09T04:39:56.086Z,13.95
2023-01-09T04:42:24.654Z,14.10
2023-01-09T04:44:54.402Z,16.10
2023-01-09T04:47:23.805Z,18.88
2023-01-09T04:49:52.037Z,15.35
2023-01-09T04:52:20.112Z,13.95
2023-01-09T04:54:48.068Z,16.35
2023-01-09T04:57:16.062Z,16.65
2023-01-09T04:59:43.967Z,18.75
2023-01-09T05:02:13.427Z,16.98
2023-01-09T05:04:41.335Z,16.40
2023-01-09T05:07:09.391Z,22.52
2023-01-09T05:09:37.292Z,16.80
2023-01-09T05:12:05.578Z,16.65
2023-01-09T05:14:33.537Z,19.83
2023-01-09T05:17:01.479Z,19.15
2023-01-09T05:19:30.718Z,25.33
2023-01-09T05:21:58.596Z,18.52
2023-01-09T05:24:26.461Z,32.38
2023-01-09T05:26:54.481Z,30.13
2023-01-09T05:29:22.469Z,18.88
2023-01-09T05:31:52.807Z,27.00
2023-01-09T05:34:20.827Z,20.50
2023-01-09T05:36:50.150Z,21.15
2023-01-09T05:39:18.138Z,16.30
2023-01-09T05:41:46.041Z,16.63
2023-01-09T05:44:13.975Z,17.65
2023-01-09T05:46:41.773Z,19.17
2023-01-09T05:49:09.595Z,14.70
2023-01-09T05:51:37.544Z,19.98
2023-01-09T05:54:07.552Z,18.58
2023-01-09T05:56:35.518Z,15.50
2023-01-09T05:59:03.379Z,17.42
2023-01-09T06:01:31.392Z,15.82
2023-01-09T06:03:59.308Z,26.45
2023-01-09T06:06:27.211Z,14.40
2023-01-09T06:08:55.149Z,19.75
2023-01-09T06:11:24.451Z,16.23
2023-01-09T06:13:52.389Z,15.43
2023-01-09T06:16:20.376Z,20.55
2023-01-09T06:18:48.352Z,17.13
2023-01-09T06:21:16.266Z,20.38
2023-01-09T06:23:44.224Z,15.77
2023-01-09T06:26:12.176Z,24.20
2023-01-09T06:28:42.895Z,15.18
2023-01-09T06:31:13.298Z,18.75
2023-01-09T06:33:41.444Z,14.23
2023-01-09T06:36:10.090Z,19.98
2023-01-09T06:38:38.039Z,18.92
2023-01-09T06:41:06.297Z,23.80
2023-01-09T06:43:34.141Z,20.02
2023-01-09T06:46:05.781Z,18.88
2023-01-09T06:48:36.185Z,20.40
2023-01-09T06:51:04.633Z,20.05
2023-01-09T06:53:32.612Z,16.65
2023-01-09T06:56:02.270Z,18.13
2023-01-09T06:58:30.440Z,20.17
2023-01-09T07:00:59.587Z,24.08
2023-01-09T07:03:28.903Z,18.98
2023-01-09T07:05:56.872Z,17.67
2023-01-09T07:08:24.819Z,18.45
2023-01-09T07:10:52.668Z,24.45
2023-01-09T07:13:20.629Z,26.25
2023-01-09T07:15:50.122Z,27.83
2023-01-09T07:18:18.038Z,19.63
2023-01-09T07:20:47.376Z,30.63
2023-01-09T07:23:15.564Z,20.93
2023-01-09T07:25:44.054Z,26.25
2023-01-09T07:28:12.428Z,36.20
2023-01-09T07:30:42.389Z,24.40
2023-01-09T07:33:10.343Z,25.38
2023-01-09T07:35:38.383Z,23.75
2023-01-09T07:38:07.682Z,30.30
2023-01-09T07:40:35.591Z,19.20
2023-01-09T07:43:04.010Z,21.50
2023-01-09T07:45:31.978Z,22.35
2023-01-09T07:47:59.921Z,21.92
2023-01-09T07:50:27.803Z,23.45
2023-01-09T07:52:55.820Z,26.98
2023-01-09T07:55:25.146Z,22.85
2023-01-09T07:57:53.541Z,24.93
2023-01-09T08:00:22.192Z,27.25
2023-01-09T08:02:53.954Z,24.02
2023-01-09T08:05:22.443Z,20.63
2023-01-09T08:07:51.519Z,20.98
2023-01-09T08:10:21.330Z,17.55
2023-01-09T08:12:51.024Z,24.67
2023-01-09T08:15:19.568Z,27.90
2023-01-09T08:17:48.015Z,28.55
2023-01-09T08:20:20.683Z,30.42
2023-01-09T08:22:50.706Z,24.10
2023-01-09T08:25:21.195Z,24.10
2023-01-09T08:27:50.744Z,23.15
2023-01-09T08:30:19.443Z,18.60
2023-01-09T08:32:50.470Z,17.45
2023-01-09T08:35:18.765Z,17.70
2023-01-09T08:37:47.019Z,16.92
2023-01-09T08:40:16.426Z,18.75
2023-01-09T08:43:01.791Z,20.67
2023-01-09T08:45:51.156Z,23.50
2023-01-09T08:48:19.095Z,14.23
2023-01-09T08:50:47.204Z,27.00
2023-01-09T08:53:15.511Z,23.55
2023-01-09T08:55:43.570Z,22.95
2023-01-09T08:58:11.557Z,18.45
2023-01-09T09:00:40.822Z,18.00
2023-01-09T09:03:08.738Z,21.00
2023-01-09T09:05:36.661Z,21.35
2023-01-09T09:08:04.843Z,24.42
2023-01-09T09:10:32.823Z,22.15
2023-01-09T09:13:01.113Z,24.95
2023-01-09T09:15:29.561Z,22.83
2023-01-09T09:18:00.782Z,21.50
2023-01-09T09:20:31.077Z,16.48
2023-01-09T09:25:27.558Z,14.63
2023-01-09T09:27:56.410Z,22.45
2023-01-09T09:30:25.235Z,19.92
2023-01-09T09:32:53.386Z,19.17
2023-01-09T09:35:22.708Z,23.00
2023-01-09T09:37:58.642Z,35.27
2023-01-09T09:40:38.629Z,21.48
2023-01-09T09:43:43.400Z,27.60
2023-01-09T09:46:21.601Z,30.98
2023-01-09T09:48:53.089Z,20.17
2023-01-09T09:51:56.472Z,26.35
2023-01-09T09:54:28.652Z,22.17
2023-01-09T09:57:00.419Z,22.15
2023-01-09T09:59:32.356Z,19.70
2023-01-09T10:02:03.804Z,22.30
2023-01-09T10:04:34.740Z,25.55
2023-01-09T10:07:09.428Z,28.60
2023-01-09T10:09:48.410Z,21.15
2023-01-09T10:12:28.949Z,29.10
2023-01-09T10:14:58.839Z,21.20
2023-01-09T10:17:51.638Z,28.65
2023-01-09T10:20:57.243Z,23.75
2023-01-09T10:23:57.745Z,30.58
2023-01-09T10:26:30.436Z,31.33
2023-01-09T10:29:13.967Z,27.13
2023-01-09T10:31:57.574Z,26.88
2023-01-09T10:34:37.729Z,29.60
2023-01-09T10:37:12.145Z,24.73
2023-01-09T10:39:46.400Z,27.20
2023-01-09T10:42:21.873Z,37.78
2023-01-09T10:44:55.380Z,24.70
2023-01-09T10:47:27.946Z,25.65
2023-01-09T10:49:56.717Z,26.45
2023-01-09T10:52:31.204Z,26.20
2023-01-09T10:55:04.702Z,28.95
2023-01-09T10:57:42.295Z,24.08
2023-01-09T11:00:22.357Z,26.02
2023-01-09T11:02:51.382Z,25.45
2023-01-09T11:05:21.893Z,25.38
2023-01-09T11:07:54.459Z,29.38
2023-01-09T11:10:23.773Z,25.98
2023-01-09T11:12:51.592Z,26.23
2023-01-09T11:15:30.101Z,36.22
2023-01-09T11:18:24.583Z,31.90
2023-01-09T11:20:53.405Z,34.72
2023-01-09T11:23:27.139Z,28.15
2023-01-09T11:25:58.531Z,29.83
2023-01-09T11:28:26.700Z,33.25
2023-01-09T11:30:57.270Z,34.30
2023-01-09T11:33:28.480Z,26.80
2023-01-09T11:36:00.836Z,27.80
2023-01-09T11:38:30.484Z,26.10
2023-01-09T11:41:01.923Z,28.63
2023-01-09T11:43:33.976Z,26.48
2023-01-09T11:46:05.782Z,26.55
2023-01-09T11:48:37.883Z,25.77
2023-01-09T11:51:17.248Z,26.70
2023-01-09T11:54:24.123Z,26.23
2023-01-09T11:56:54.220Z,26.55
2023-01-09T11:59:26.085Z,28.27
2023-01-09T12:02:25.245Z,26.23
2023-01-09T12:04:57.341Z,28.27
2023-01-09T12:08:03.139Z,26.67
2023-01-09T12:10:50.724Z,26.63
2023-01-09T12:13:33.149Z,26.60
2023-01-09T12:16:12.446Z,26.17
2023-01-09T12:18:58.379Z,27.70
2023-01-09T12:21:34.615Z,34.03
2023-01-09T12:24:31.799Z,30.20
2023-01-09T12:27:14.993Z,40.63
2023-01-09T12:30:26.807Z,27.52
2023-01-09T12:33:13.566Z,27.48
2023-01-09T12:35:45.401Z,30.77
2023-01-09T12:38:26.285Z,27.25
2023-01-09T12:41:11.054Z,27.15
2023-01-09T12:43:48.281Z,29.15
2023-01-09T12:46:20.550Z,30.48
2023-01-09T12:49:08.520Z,31.27
2023-01-09T12:51:41.248Z,34.22
2023-01-09T12:54:16.196Z,30.13
2023-01-09T12:56:50.908Z,29.08
2023-01-09T12:59:30.747Z,30.83
2023-01-09T13:02:08.926Z,30.35
2023-01-09T13:04:42.624Z,27.42
2023-01-09T13:07:18.534Z,29.80
2023-01-09T13:09:50.695Z,28.70
2023-01-09T13:12:21.859Z,29.25
2023-01-09T13:14:55.973Z,27.33
2023-01-09T13:17:31.091Z,26.55
2023-01-09T13:19:58.991Z,24.50
2023-01-09T13:22:30.340Z,28.38
2023-01-09T13:25:18.405Z,28.15
2023-01-09T13:27:56.607Z,28.27
2023-01-09T13:30:41.076Z,28.13
2023-01-09T13:33:19.677Z,30.60
2023-01-09T13:35:55.711Z,33.83
2023-01-09T13:38:26.002Z,31.30
2023-01-09T13:46:37.472Z,30.35
2023-01-09T13:49:08.890Z,49.08
2023-01-09T13:51:59.473Z,44.67
2023-01-09T13:55:02.322Z,36.35
2023-01-09T13:57:34.761Z,27.20
2023-01-09T14:00:39.868Z,44.75
2023-01-09T14:03:19.362Z,36.38
2023-01-09T14:06:20.690Z,33.10
2023-01-09T14:09:05.091Z,29.92
2023-01-09T14:11:33.772Z,30.20
2023-01-09T14:14:23.697Z,38.28
2023-01-09T14:16:51.902Z,31.05
2023-01-09T14:19:27.197Z,35.30
2023-01-09T14:21:57.272Z,28.77
2023-01-09T14:24:29.946Z,50.70
2023-01-09T14:26:59.956Z,46.03
2023-01-09T14:29:52.702Z,26.02
2023-01-09T14:32:46.102Z,37.13
2023-01-09T14:35:24.372Z,26.00
2023-01-09T14:38:03.787Z,34.63
2023-01-09T14:40:34.386Z,31.00
2023-01-09T14:43:18.443Z,38.30
2023-01-09T14:45:50.620Z,30.67
2023-01-09T14:48:19.143Z,28.90
2023-01-09T14:50:55.225Z,29.65
2023-01-09T14:53:30.746Z,31.48
2023-01-09T14:56:01.772Z,31.35
2023-01-09T14:58:31.677Z,30.10
2023-01-09T15:01:03.306Z,29.40
2023-01-09T15:03:35.837Z,27.42
2023-01-09T15:06:04.325Z,28.58
2023-01-09T15:08:33.601Z,41.08
2023-01-09T15:11:03.220Z,57.78
2023-01-09T15:13:35.595Z,35.78
2023-01-09T15:16:07.048Z,38.97
2023-01-09T15:18:41.282Z,68.35
2023-01-09T15:21:18.688Z,61.97
2023-01-09T15:23:46.797Z,47.17
2023-01-09T15:26:26.322Z,38.22
2023-01-09T15:29:01.248Z,31.95
2023-01-09T15:31:30.057Z,29.63
2023-01-09T15:33:58.439Z,34.22
2023-01-09T15:36:31.941Z,33.67
2023-01-09T15:39:00.749Z,36.97
2023-01-09T15:41:49.129Z,39.22
2023-01-09T15:44:21.009Z,42.72
2023-01-09T15:46:50.667Z,36.95
2023-01-09T15:49:19.992Z,34.97
2023-01-09T15:51:49.949Z,45.73
2023-01-09T15:54:22.149Z,40.15
2023-01-09T15:56:51.356Z,42.75
2023-01-09T15:59:28.045Z,45.63
2023-01-09T16:02:20.820Z,46.88
2023-01-09T16:04:50.011Z,47.55
2023-01-09T16:07:21.238Z,47.75
2023-01-09T16:09:52.732Z,50.92
2023-01-09T16:12:25.017Z,50.47
2023-01-09T16:14:55.189Z,50.40
2023-01-09T16:17:26.581Z,50.53
2023-01-09T16:19:55.961Z,48.00
2023-01-09T16:22:25.620Z,44.25
2023-01-09T16:24:54.837Z,53.13
2023-01-09T16:27:27.154Z,128.23
2023-01-09T16:29:58.222Z,185.10
2023-01-09T16:32:29.726Z,60.35
2023-01-09T16:35:00.783Z,59.33
2023-01-09T16:37:29.180Z,64.97
2023-01-09T16:40:32.146Z,169.13
2023-01-09T16:43:01.657Z,130.75
2023-01-09T16:45:32.311Z,85.80
2023-01-09T16:48:00.978Z,69.55
2023-01-09T16:50:29.532Z,44.35
2023-01-09T16:52:58.410Z,67.07
2023-01-09T16:55:26.445Z,55.75
2023-01-09T16:57:54.415Z,91.88
2023-01-09T17:00:24.098Z,138.30
2023-01-09T17:02:52.115Z,78.30
2023-01-09T17:05:20.072Z,120.70
2023-01-09T17:07:48.072Z,81.57
2023-01-09T17:10:21.554Z,75.68
2023-01-09T17:12:50.908Z,52.67
2023-01-09T17:15:19.055Z,55.83
2023-01-09T17:17:48.376Z,49.63
2023-01-09T17:20:19.408Z,50.17
2023-01-09T17:22:47.328Z,43.75
2023-01-09T17:25:34.057Z,35.10
2023-01-09T17:28:20.756Z,42.92
2023-01-09T17:30:51.689Z,45.67
2023-01-09T17:33:21.215Z,40.97
2023-01-09T17:35:49.189Z,39.33
2023-01-09T17:38:17.292Z,37.70
2023-01-09T17:40:45.925Z,101.55
2023-01-09T17:43:13.838Z,38.22
2023-01-09T17:45:43.057Z,38.80
2023-01-09T17:48:16.539Z,35.50
2023-01-09T17:50:46.846Z,28.95
2023-01-09T17:55:43.269Z,29.17
2023-01-09T17:58:25.208Z,30.95
2023-01-09T18:00:53.488Z,34.58
2023-01-09T18:03:23.070Z,75.53
2023-01-09T18:05:52.695Z,45.22
2023-01-09T18:08:20.693Z,49.72
2023-01-09T18:10:49.086Z,33.67
2023-01-09T18:13:17.740Z,33.47
2023-01-09T18:15:47.163Z,51.47
2023-01-09T18:18:16.242Z,41.80
2023-01-09T18:20:45.419Z,49.58
2023-01-09T18:23:15.382Z,35.97
2023-01-09T18:25:44.431Z,55.70
2023-01-09T18:28:15.230Z,53.05
2023-01-09T18:30:45.553Z,68.63
2023-01-09T18:35:41.346Z,56.28
2023-01-09T18:38:09.690Z,45.30
2023-01-09T18:40:39.463Z,48.25
2023-01-09T18:43:07.983Z,45.80
2023-01-09T18:45:37.824Z,59.88
2023-01-09T18:48:06.566Z,65.53
2023-01-09T18:50:34.561Z,53.88
2023-01-09T18:53:02.427Z,44.80
2023-01-09T18:55:30.365Z,49.72
2023-01-09T18:57:59.661Z,69.07
2023-01-09T19:00:27.617Z,60.57
2023-01-09T19:02:55.633Z,52.67
2023-01-09T19:05:25.414Z,58.22
2023-01-09T19:07:53.286Z,62.15
2023-01-09T19:10:21.192Z,59.90
2023-01-09T19:12:49.098Z,27.50
2023-01-09T19:15:18.486Z,58.53
2023-01-09T19:17:47.025Z,68.47
2023-01-09T19:20:14.934Z,71.55
2023-01-09T19:22:42.845Z,65.38
2023-01-09T19:25:12.555Z,63.90
2023-01-09T19:27:40.539Z,67.22
2023-01-09T19:30:10.090Z,33.60
2023-01-09T19:32:40.778Z,66.57
2023-01-09T19:35:11.704Z,73.95
2023-01-09T19:37:39.615Z,63.83
2023-01-09T19:40:10.632Z,36.58
2023-01-09T19:42:38.595Z,49.53
2023-01-09T19:45:09.635Z,35.25
2023-01-09T19:47:38.945Z,34.17
2023-01-09T19:50:08.371Z,23.80
2023-01-09T19:52:37.491Z,21.73
2023-01-09T19:55:06.038Z,21.23
2023-01-09T19:57:33.971Z,21.17
2023-01-09T20:00:02.764Z,23.85
2023-01-09T20:02:30.752Z,22.83
2023-01-09T20:05:00.067Z,22.65
2023-01-09T20:07:27.984Z,21.77
2023-01-09T20:09:56.161Z,20.02
2023-01-09T20:12:24.084Z,24.30
2023-01-09T20:14:52.087Z,95.18
2023-01-09T20:17:20.501Z,41.88
2023-01-09T20:19:48.318Z,42.65
2023-01-09T20:22:17.672Z,52.58
2023-01-09T20:24:45.473Z,34.00
2023-01-09T20:27:13.373Z,44.10
2023-01-09T20:29:41.283Z,33.83
2023-01-09T20:32:10.288Z,24.13
2023-01-09T20:34:38.213Z,37.42
2023-01-09T20:37:06.149Z,23.35
2023-01-09T20:39:35.353Z,27.50
2023-01-09T20:42:03.275Z,29.05
2023-01-09T20:44:31.245Z,24.10
2023-01-09T20:46:59.133Z,20.02
2023-01-09T20:49:26.990Z,27.38
2023-01-09T20:51:54.869Z,20.73
2023-01-09T20:54:23.515Z,21.38
2023-01-09T20:56:53.703Z,17.67
2023-01-09T21:01:50.421Z,14.70
2023-01-09T21:04:18.954Z,20.52
2023-01-09T21:06:49.628Z,28.98
2023-01-09T21:09:17.976Z,37.75
2023-01-09T21:11:45.824Z,20.85
2023-01-09T21:14:15.168Z,21.70
2023-01-09T21:16:45.535Z,21.07
2023-01-09T21:19:19.608Z,21.23
2023-01-09T21:21:47.536Z,20.23
2023-01-09T21:24:15.395Z,16.58
2023-01-09T21:26:43.497Z,15.30
2023-01-09T21:29:14.873Z,13.55
2023-01-09T21:31:44.126Z,15.93
2023-01-09T21:34:14.676Z,12.07
2023-01-09T21:36:44.894Z,16.05
2023-01-09T21:41:58.045Z,14.43
2023-01-09T21:44:44.928Z,15.10
2023-01-09T21:47:13.835Z,15.25
2023-01-09T21:49:43.211Z,14.48
2023-01-09T21:52:12.864Z,13.35
2023-01-09T21:54:41.722Z,11.85
2023-01-09T21:57:09.639Z,12.77
2023-01-09T21:59:39.005Z,11.00
2023-01-09T22:02:07.006Z,10.23
2023-01-09T22:04:34.826Z,11.98
2023-01-09T22:07:02.731Z,12.27
2023-01-09T22:09:30.556Z,13.98
2023-01-09T22:11:58.636Z,13.27
2023-01-09T22:14:26.564Z,12.40
2023-01-09T22:16:55.866Z,11.63
2023-01-09T22:19:23.750Z,10.63
2023-01-09T22:21:51.662Z,11.13
2023-01-09T22:24:21.733Z,11.88
2023-01-09T22:26:49.845Z,11.90
2023-01-09T22:29:17.876Z,13.02
2023-01-09T22:31:45.880Z,13.25
2023-01-09T22:34:17.692Z,11.60
2023-01-09T22:36:46.431Z,12.75
2023-01-09T22:39:15.865Z,13.38
2023-01-09T22:41:44.113Z,13.60
2023-01-09T22:44:13.515Z,12.80
2023-01-09T22:46:41.421Z,11.75
2023-01-09T22:49:12.000Z,12.55
2023-01-09T22:51:41.611Z,11.02
2023-01-09T22:54:12.599Z,11.50
2023-01-09T22:56:40.463Z,11.18
2023-01-09T22:59:08.464Z,11.68
2023-01-09T23:01:36.435Z,10.60
2023-01-09T23:04:04.716Z,11.77
2023-01-09T23:06:32.656Z,12.50
2023-01-09T23:09:01.917Z,12.23
2023-01-09T23:11:49.124Z,13.03
2023-01-09T23:14:17.764Z,10.73
2023-01-09T23:16:45.695Z,11.75
2023-01-09T23:19:15.738Z,11.60
2023-01-09T23:21:44.809Z,10.57
2023-01-09T23:24:15.530Z,10.65
2023-01-09T23:26:44.697Z,10.43
2023-01-09T23:29:13.463Z,10.23
2023-01-09T23:31:41.741Z,10.50
2023-01-09T23:34:09.963Z,9.23
2023-01-09T23:36:37.907Z,9.27
2023-01-09T23:39:09.069Z,9.85
2023-01-09T23:41:56.329Z,10.88
2023-01-09T23:44:24.204Z,9.07
2023-01-09T23:46:52.545Z,8.65
2023-01-09T23:49:20.676Z,9.23
2023-01-09T23:51:48.767Z,9.07
2023-01-09T23:54:17.344Z,9.32
2023-01-09T23:56:46.639Z,9.02
2023-01-09T23:59:17.550Z,9.00
